sensor_id;sensor_type;location;lat;lon;timestamp;P1;durP1;ratioP1;P2;durP2;ratioP2
43690;SDS011;29293;52.190;21.226;2023-05-10T00:15:04;17.50;;;6.50;;
43690;SDS011;29293;52.190;21.226;2023-05-10T00:30:13;15.10;;;6.40;;
43690;SDS011;29293;52.190;21.226;2023-05-10T00:45:20;11.40;;;6.00;;
43690;SDS011;29293;52.190;21.226;2023-05-10T01:00:27;10.90;;;6.10;;
43690;SDS011;29293;52.190;21.226;2023-05-10T01:15:34;15.00;;;5.80;;
43690;SDS011;29293;52.190;21.226;2023-05-10T01:46:20;10.80;;;5.40;;
43690;SDS011;29293;52.190;21.226;2023-05-10T02:01:33;11.20;;;5.20;;
43690;SDS011;29293;52.190;21.226;2023-05-10T02:16:43;10.60;;;5.10;;
43690;SDS011;29293;52.190;21.226;2023-05-10T02:46:58;11.30;;;5.60;;
43690;SDS011;29293;52.190;21.226;2023-05-10T03:02:05;10.90;;;5.40;;
43690;SDS011;29293;52.190;21.226;2023-05-10T03:17:14;10.80;;;5.40;;
43690;SDS011;29293;52.190;21.226;2023-05-10T03:32:33;12.80;;;5.70;;
43690;SDS011;29293;52.190;21.226;2023-05-10T03:47:41;9.60;;;5.50;;
43690;SDS011;29293;52.190;21.226;2023-05-10T04:02:47;15.20;;;5.90;;
43690;SDS011;29293;52.190;21.226;2023-05-10T04:17:54;10.60;;;5.30;;
43690;SDS011;29293;52.190;21.226;2023-05-10T04:33:01;10.40;;;5.90;;
43690;SDS011;29293;52.190;21.226;2023-05-10T04:48:08;9.30;;;5.10;;
43690;SDS011;29293;52.190;21.226;2023-05-10T05:03:15;16.20;;;5.30;;
43690;SDS011;29293;52.190;21.226;2023-05-10T05:18:21;11.20;;;5.00;;
43690;SDS011;29293;52.190;21.226;2023-05-10T05:33:28;7.60;;;4.00;;
43690;SDS011;29293;52.190;21.226;2023-05-10T05:48:35;12.50;;;3.80;;
43690;SDS011;29293;52.190;21.226;2023-05-10T06:03:42;9.40;;;4.00;;
43690;SDS011;29293;52.190;21.226;2023-05-10T06:18:49;7.10;;;3.10;;
43690;SDS011;29293;52.190;21.226;2023-05-10T06:33:59;11.90;;;3.60;;
43690;SDS011;29293;52.190;21.226;2023-05-10T06:49:17;6.40;;;3.10;;
43690;SDS011;29293;52.190;21.226;2023-05-10T07:04:30;7.40;;;2.70;;
43690;SDS011;29293;52.190;21.226;2023-05-10T07:19:42;7.50;;;2.50;;
43690;SDS011;29293;52.190;21.226;2023-05-10T07:34:55;6.40;;;2.30;;
43690;SDS011;29293;52.190;21.226;2023-05-10T07:50:02;6.30;;;2.60;;
43690;SDS011;29293;52.190;21.226;2023-05-10T08:05:10;4.80;;;2.50;;
43690;SDS011;29293;52.190;21.226;2023-05-10T08:20:17;5.10;;;2.20;;
43690;SDS011;29293;52.190;21.226;2023-05-10T08:35:24;5.80;;;2.30;;
43690;SDS011;29293;52.190;21.226;2023-05-10T08:50:31;4.90;;;2.10;;
43690;SDS011;29293;52.190;21.226;2023-05-10T09:05:38;5.20;;;2.60;;
43690;SDS011;29293;52.190;21.226;2023-05-10T09:20:46;5.70;;;2.40;;
43690;SDS011;29293;52.190;21.226;2023-05-10T09:35:53;5.90;;;2.30;;
43690;SDS011;29293;52.190;21.226;2023-05-10T09:51:00;7.50;;;2.40;;
43690;SDS011;29293;52.190;21.226;2023-05-10T10:06:07;6.60;;;2.40;;
43690;SDS011;29293;52.190;21.226;2023-05-10T10:21:14;9.20;;;2.40;;
43690;SDS011;29293;52.190;21.226;2023-05-10T10:36:22;6.10;;;2.10;;
43690;SDS011;29293;52.190;21.226;2023-05-10T10:51:31;5.00;;;2.20;;
43690;SDS011;29293;52.190;21.226;2023-05-10T11:06:41;8.10;;;2.20;;
43690;SDS011;29293;52.190;21.226;2023-05-10T11:21:50;7.20;;;2.20;;
43690;SDS011;29293;52.190;21.226;2023-05-10T11:37:17;6.30;;;2.50;;
43690;SDS011;29293;52.190;21.226;2023-05-10T11:52:25;6.40;;;2.20;;
43690;SDS011;29293;52.190;21.226;2023-05-10T12:07:32;10.70;;;2.50;;
43690;SDS011;29293;52.190;21.226;2023-05-10T12:22:40;4.50;;;2.50;;
43690;SDS011;29293;52.190;21.226;2023-05-10T12:52:53;5.90;;;2.50;;
43690;SDS011;29293;52.190;21.226;2023-05-10T13:08:03;5.40;;;2.60;;
43690;SDS011;29293;52.190;21.226;2023-05-10T13:23:11;4.30;;;2.20;;
43690;SDS011;29293;52.190;21.226;2023-05-10T13:38:18;5.00;;;2.40;;
43690;SDS011;29293;52.190;21.226;2023-05-10T13:53:24;6.10;;;2.00;;
43690;SDS011;29293;52.190;21.226;2023-05-10T14:08:31;7.40;;;2.50;;
43690;SDS011;29293;52.190;21.226;2023-05-10T14:23:40;6.90;;;2.50;;
43690;SDS011;29293;52.190;21.226;2023-05-10T14:38:48;5.00;;;2.20;;
43690;SDS011;29293;52.190;21.226;2023-05-10T14:53:55;5.30;;;2.40;;
43690;SDS011;29293;52.190;21.226;2023-05-10T15:09:02;6.90;;;1.80;;
43690;SDS011;29293;52.190;21.226;2023-05-10T15:24:10;9.10;;;2.20;;
43690;SDS011;29293;52.190;21.226;2023-05-10T15:39:16;3.70;;;2.10;;
43690;SDS011;29293;52.190;21.226;2023-05-10T15:54:24;4.80;;;2.50;;
43690;SDS011;29293;52.190;21.226;2023-05-10T16:09:30;5.20;;;2.00;;
43690;SDS011;29293;52.190;21.226;2023-05-10T16:24:37;4.40;;;2.30;;
43690;SDS011;29293;52.190;21.226;2023-05-10T16:39:45;8.20;;;2.20;;
43690;SDS011;29293;52.190;21.226;2023-05-10T16:54:51;7.00;;;2.00;;
43690;SDS011;29293;52.190;21.226;2023-05-10T17:09:59;7.50;;;2.20;;
43690;SDS011;29293;52.190;21.226;2023-05-10T17:25:07;6.50;;;2.00;;
43690;SDS011;29293;52.190;21.226;2023-05-10T17:40:14;7.50;;;2.30;;
43690;SDS011;29293;52.190;21.226;2023-05-10T17:55:21;4.90;;;2.40;;
43690;SDS011;29293;52.190;21.226;2023-05-10T18:10:29;6.30;;;2.40;;
43690;SDS011;29293;52.190;21.226;2023-05-10T18:25:36;4.80;;;2.40;;
43690;SDS011;29293;52.190;21.226;2023-05-10T18:40:43;5.50;;;3.30;;
43690;SDS011;29293;52.190;21.226;2023-05-10T18:55:57;7.00;;;3.10;;
43690;SDS011;29293;52.190;21.226;2023-05-10T19:11:04;4.90;;;2.70;;
43690;SDS011;29293;52.190;21.226;2023-05-10T19:26:11;8.30;;;3.10;;
43690;SDS011;29293;52.190;21.226;2023-05-10T19:41:18;9.90;;;3.20;;
43690;SDS011;29293;52.190;21.226;2023-05-10T19:56:25;7.60;;;3.40;;
43690;SDS011;29293;52.190;21.226;2023-05-10T20:11:32;8.10;;;4.00;;
43690;SDS011;29293;52.190;21.226;2023-05-10T20:26:39;10.70;;;4.90;;
43690;SDS011;29293;52.190;21.226;2023-05-10T20:41:46;11.20;;;5.20;;
43690;SDS011;29293;52.190;21.226;2023-05-10T20:56:53;16.90;;;6.00;;
43690;SDS011;29293;52.190;21.226;2023-05-10T21:12:00;10.50;;;5.80;;
43690;SDS011;29293;52.190;21.226;2023-05-10T21:27:07;10.20;;;5.50;;
43690;SDS011;29293;52.190;21.226;2023-05-10T21:42:15;9.90;;;5.10;;
43690;SDS011;29293;52.190;21.226;2023-05-10T21:57:21;9.80;;;5.50;;
43690;SDS011;29293;52.190;21.226;2023-05-10T22:12:28;9.90;;;4.40;;
43690;SDS011;29293;52.190;21.226;2023-05-10T22:27:35;13.30;;;4.10;;
43690;SDS011;29293;52.190;21.226;2023-05-10T22:42:41;10.60;;;4.40;;
43690;SDS011;29293;52.190;21.226;2023-05-10T22:57:48;8.20;;;4.30;;
43690;SDS011;29293;52.190;21.226;2023-05-10T23:12:56;10.30;;;4.40;;
43690;SDS011;29293;52.190;21.226;2023-05-10T23:28:03;8.20;;;4.10;;
43690;SDS011;29293;52.190;21.226;2023-05-10T23:43:10;8.50;;;4.20;;
43690;SDS011;29293;52.190;21.226;2023-05-10T23:58:19;8.50;;;4.20;;
